createdAt,value
2019-02-07T00:04:50.007Z,8.16
2019-02-07T00:07:18.210Z,8.14
2019-02-07T00:09:46.410Z,8.13
2019-02-07T00:12:14.619Z,8.12
2019-02-07T00:14:42.799Z,8.10
2019-02-07T00:17:11.022Z,8.10
2019-02-07T00:19:39.213Z,8.12
2019-02-07T00:22:09.137Z,8.10
2019-02-07T00:24:42.861Z,8.11
2019-02-07T00:27:07.262Z,8.10
2019-02-07T00:29:35.473Z,8.11
2019-02-07T00:32:03.700Z,8.12
2019-02-07T00:34:31.945Z,8.15
2019-02-07T00:37:01.867Z,8.17
2019-02-07T00:39:30.065Z,8.20
2019-02-07T00:41:58.271Z,8.22
2019-02-07T00:47:13.716Z,8.17
2019-02-07T00:49:43.681Z,8.15
2019-02-07T00:52:31.193Z,8.11
2019-02-07T00:54:59.410Z,8.05
2019-02-07T00:57:27.612Z,8.03
2019-02-07T00:59:57.545Z,8.02
2019-02-07T01:02:25.747Z,8.01
2019-02-07T01:04:53.934Z,8.00
2019-02-07T01:07:22.135Z,7.95
2019-02-07T01:09:50.347Z,7.94
2019-02-07T01:12:18.546Z,7.95
2019-02-07T01:14:46.762Z,7.93
2019-02-07T01:17:14.967Z,7.91
2019-02-07T01:19:43.180Z,7.89
2019-02-07T01:22:30.520Z,7.89
2019-02-07T01:24:58.732Z,7.86
2019-02-07T01:27:26.936Z,7.82
2019-02-07T01:30:14.514Z,7.83
2019-02-07T01:32:42.717Z,7.84
2019-02-07T01:35:10.907Z,7.84
2019-02-07T01:37:39.135Z,7.83
2019-02-07T01:45:56.636Z,7.73
2019-02-07T01:48:24.845Z,7.66
2019-02-07T01:50:53.052Z,7.63
2019-02-07T01:53:21.254Z,7.63
2019-02-07T01:55:49.467Z,7.60
2019-02-07T01:58:17.692Z,7.56
2019-02-07T02:00:45.879Z,7.52
2019-02-07T02:03:14.188Z,7.45
2019-02-07T02:05:42.401Z,7.44
2019-02-07T02:08:10.625Z,7.40
2019-02-07T02:10:38.836Z,7.35
2019-02-07T02:13:07.061Z,7.33
2019-02-07T02:15:35.276Z,7.29
2019-02-07T02:18:05.209Z,7.28
2019-02-07T02:20:33.427Z,7.26
2019-02-07T02:23:01.636Z,7.25
2019-02-07T02:25:49.264Z,7.20
2019-02-07T02:28:17.467Z,7.18
2019-02-07T02:30:47.378Z,7.17
2019-02-07T02:33:15.579Z,7.15
2019-02-07T02:36:02.881Z,7.16
2019-02-07T02:38:31.080Z,7.17
2019-02-07T02:40:59.292Z,7.17
2019-02-07T02:43:27.496Z,7.14
2019-02-07T02:45:55.690Z,7.14
2019-02-07T02:48:23.916Z,7.11
2019-02-07T02:51:11.467Z,7.10
2019-02-07T02:53:39.664Z,7.10
2019-02-07T02:56:07.876Z,7.09
2019-02-07T02:59:16.223Z,7.07
2019-02-07T03:04:54.149Z,7.11
2019-02-07T03:07:41.579Z,7.13
2019-02-07T03:10:49.854Z,7.10
2019-02-07T03:13:37.182Z,7.09
2019-02-07T03:19:13.368Z,7.07
2019-02-07T03:22:00.675Z,7.06
2019-02-07T03:24:47.996Z,7.04
2019-02-07T03:27:35.297Z,7.01
2019-02-07T03:30:15.042Z,6.98
2019-02-07T03:35:55.816Z,7.02
2019-02-07T03:38:43.117Z,7.00
2019-02-07T03:44:09.663Z,6.92
2019-02-07T03:46:56.967Z,6.92
2019-02-07T03:52:19.604Z,6.97
2019-02-07T03:57:42.341Z,6.95
2019-02-07T04:03:30.421Z,6.98
2019-02-07T04:06:17.741Z,6.99
2019-02-07T04:09:05.073Z,6.95
2019-02-07T04:11:52.413Z,6.92
2019-02-07T04:14:39.753Z,6.87
2019-02-07T04:22:37.709Z,6.80
2019-02-07T04:25:25.055Z,6.75
2019-02-07T04:28:12.378Z,6.76
2019-02-07T04:30:59.696Z,6.72
2019-02-07T04:33:46.996Z,6.71
2019-02-07T04:36:34.315Z,6.69
2019-02-07T04:42:10.591Z,6.68
2019-02-07T04:44:57.892Z,6.73
2019-02-07T04:47:45.231Z,6.75
2019-02-07T04:50:32.559Z,6.75
2019-02-07T04:53:20.150Z,6.77
2019-02-07T04:56:07.452Z,6.76
2019-02-07T04:58:54.768Z,6.75
2019-02-07T05:04:30.951Z,6.72
2019-02-07T05:09:57.457Z,6.74
2019-02-07T05:12:44.777Z,6.73
2019-02-07T05:15:32.075Z,6.68
2019-02-07T05:18:19.387Z,6.67
2019-02-07T05:21:06.692Z,6.64
2019-02-07T05:29:08.895Z,6.66
2019-02-07T05:31:56.207Z,6.63
2019-02-07T05:37:18.866Z,6.65
2019-02-07T05:40:06.205Z,6.62
2019-02-07T05:45:42.401Z,6.60
2019-02-07T05:48:29.720Z,6.58
2019-02-07T05:51:17.030Z,6.56
2019-02-07T05:54:04.363Z,6.53
2019-02-07T05:56:51.764Z,6.48
2019-02-07T06:04:53.443Z,6.46
2019-02-07T06:07:40.745Z,6.46
2019-02-07T06:10:49.060Z,6.44
2019-02-07T06:16:25.242Z,6.36
2019-02-07T06:21:51.966Z,6.28
2019-02-07T06:24:39.288Z,6.25
2019-02-07T06:27:26.593Z,6.22
2019-02-07T06:30:33.297Z,6.20
2019-02-07T06:36:09.806Z,6.19
2019-02-07T06:38:57.107Z,6.23
2019-02-07T06:41:44.430Z,6.25
2019-02-07T06:44:51.120Z,6.25
2019-02-07T06:47:38.445Z,6.28
2019-02-07T06:53:26.488Z,6.34
2019-02-07T06:56:13.889Z,6.35
2019-02-07T06:59:01.202Z,6.34
2019-02-07T07:09:45.814Z,6.37
2019-02-07T07:12:33.149Z,6.40
2019-02-07T07:18:09.359Z,6.39
2019-02-07T07:23:45.552Z,6.36
2019-02-07T07:31:43.019Z,6.33
2019-02-07T07:34:30.323Z,6.33
2019-02-07T07:37:17.659Z,6.32
2019-02-07T07:40:04.989Z,6.34
2019-02-07T07:42:52.299Z,6.35
2019-02-07T07:45:39.602Z,6.34
2019-02-07T07:48:26.919Z,6.37
2019-02-07T07:51:14.590Z,6.39
2019-02-07T07:54:01.927Z,6.40
2019-02-07T07:56:49.251Z,6.37
2019-02-07T08:02:25.443Z,6.41
2019-02-07T08:08:01.636Z,6.39
2019-02-07T08:16:13.356Z,6.46
2019-02-07T08:19:00.689Z,6.47
2019-02-07T08:24:36.884Z,6.54
2019-02-07T08:27:24.289Z,6.57
2019-02-07T08:30:11.598Z,6.59
2019-02-07T08:35:47.791Z,6.64
2019-02-07T08:38:35.111Z,6.65
2019-02-07T08:44:14.052Z,6.66
2019-02-07T08:47:00.347Z,6.70
2019-02-07T08:49:47.949Z,6.69
2019-02-07T08:52:35.258Z,6.70
2019-02-07T08:55:22.568Z,6.71
2019-02-07T08:58:09.894Z,6.73
2019-02-07T09:00:57.229Z,6.73
2019-02-07T09:06:33.500Z,6.76
2019-02-07T09:09:20.996Z,6.78
2019-02-07T09:14:57.186Z,6.81
2019-02-07T09:20:33.397Z,6.81
2019-02-07T09:23:20.695Z,6.83
2019-02-07T09:26:08.013Z,6.86
2019-02-07T09:31:44.193Z,6.91
2019-02-07T09:34:31.768Z,6.92
2019-02-07T09:42:33.441Z,6.98
2019-02-07T09:45:20.766Z,7.00
2019-02-07T09:48:08.090Z,7.05
2019-02-07T09:50:55.401Z,7.10
2019-02-07T09:53:42.717Z,7.12
2019-02-07T09:56:30.031Z,7.15
2019-02-07T09:59:17.347Z,7.21
2019-02-07T10:02:05.029Z,7.28
2019-02-07T10:04:52.337Z,7.31
2019-02-07T10:07:39.653Z,7.35
2019-02-07T10:13:27.751Z,7.41
2019-02-07T10:16:15.068Z,7.47
2019-02-07T10:19:02.371Z,7.52
2019-02-07T10:24:28.926Z,7.63
2019-02-07T10:27:16.246Z,7.67
2019-02-07T10:30:03.558Z,7.72
2019-02-07T10:32:50.897Z,7.78
2019-02-07T10:35:38.227Z,7.84
2019-02-07T10:38:25.552Z,7.87
2019-02-07T10:41:12.856Z,7.90
2019-02-07T10:44:00.165Z,7.93
2019-02-07T10:46:47.481Z,8.00
2019-02-07T10:49:34.819Z,8.08
2019-02-07T10:52:22.135Z,8.14
2019-02-07T10:55:09.438Z,8.15
2019-02-07T11:00:56.924Z,8.19
2019-02-07T11:03:44.324Z,8.18
2019-02-07T11:06:31.625Z,8.19
2019-02-07T11:09:18.969Z,8.25
2019-02-07T11:12:06.505Z,8.27
2019-02-07T11:17:29.117Z,8.27
2019-02-07T11:20:16.430Z,8.28
2019-02-07T11:25:42.881Z,8.30
2019-02-07T11:31:05.376Z,8.32
2019-02-07T11:33:52.980Z,8.33
2019-02-07T11:36:40.280Z,8.32
2019-02-07T11:42:28.891Z,8.35
2019-02-07T11:45:16.201Z,8.35
2019-02-07T11:48:03.501Z,8.36
2019-02-07T11:53:30.089Z,8.33
2019-02-07T11:56:17.405Z,8.36
2019-02-07T11:59:05.068Z,8.40
2019-02-07T12:02:08.804Z,8.43
2019-02-07T12:04:48.885Z,8.46
2019-02-07T12:07:36.190Z,8.53
2019-02-07T12:10:44.497Z,8.75
2019-02-07T12:13:31.799Z,9.00
2019-02-07T12:16:19.192Z,9.27
2019-02-07T12:19:17.517Z,9.51
2019-02-07T12:21:55.596Z,9.72
2019-02-07T12:24:42.896Z,10.06
2019-02-07T12:27:30.229Z,10.35
2019-02-07T12:30:17.571Z,10.51
2019-02-07T12:33:04.878Z,10.55
2019-02-07T12:35:52.191Z,10.65
2019-02-07T12:38:39.525Z,10.75
2019-02-07T12:41:26.858Z,10.89
2019-02-07T12:44:14.161Z,10.89
2019-02-07T12:47:01.475Z,10.97
2019-02-07T12:49:48.788Z,11.23
2019-02-07T12:52:36.142Z,11.59
2019-02-07T13:01:25.360Z,11.82
2019-02-07T13:04:12.671Z,12.11
2019-02-07T13:06:59.987Z,12.39
2019-02-07T13:09:47.288Z,12.70
2019-02-07T13:18:07.970Z,12.65
2019-02-07T13:26:35.379Z,12.15
2019-02-07T13:29:22.675Z,12.06
2019-02-07T13:32:10.043Z,12.00
2019-02-07T13:34:57.320Z,11.94
2019-02-07T13:37:44.813Z,11.85
2019-02-07T13:40:32.216Z,11.92
2019-02-07T13:43:19.537Z,11.98
2019-02-07T13:46:06.837Z,12.02
2019-02-07T13:51:33.511Z,12.10
2019-02-07T13:54:20.827Z,11.96
2019-02-07T13:59:46.942Z,11.76
2019-02-07T14:02:34.237Z,11.75
2019-02-07T14:05:21.540Z,11.75
2019-02-07T14:08:08.852Z,11.73
2019-02-07T14:10:56.426Z,11.77
2019-02-07T14:16:18.866Z,11.77
2019-02-07T14:32:06.128Z,11.46
2019-02-07T14:34:53.445Z,11.40
2019-02-07T14:37:40.738Z,11.36
2019-02-07T14:43:28.530Z,11.66
2019-02-07T14:46:15.853Z,11.65
2019-02-07T14:48:45.256Z,11.56
2019-02-07T14:51:14.023Z,11.47
2019-02-07T14:53:42.233Z,11.36
2019-02-07T14:56:10.423Z,11.28
2019-02-07T14:58:38.626Z,11.20
2019-02-07T15:01:08.557Z,11.10
2019-02-07T15:03:36.774Z,11.05
2019-02-07T15:06:04.961Z,11.02
2019-02-07T15:08:33.173Z,11.03
2019-02-07T15:11:01.380Z,11.06
2019-02-07T15:13:29.570Z,11.11
2019-02-07T15:15:57.787Z,11.19
2019-02-07T15:18:46.153Z,11.27
2019-02-07T15:24:28.812Z,11.28
2019-02-07T15:26:57.004Z,11.19
2019-02-07T15:30:05.320Z,11.09
2019-02-07T15:32:33.531Z,11.02
2019-02-07T15:35:01.733Z,10.92
2019-02-07T15:37:29.914Z,10.84
2019-02-07T15:39:58.109Z,10.79
2019-02-07T15:42:26.297Z,10.77
2019-02-07T15:44:54.791Z,10.74
2019-02-07T15:47:22.983Z,10.70
2019-02-07T15:49:51.191Z,10.62
2019-02-07T15:52:19.379Z,10.60
2019-02-07T15:54:47.585Z,10.59
2019-02-07T15:57:15.797Z,10.66
2019-02-07T16:02:32.930Z,10.75
2019-02-07T16:05:01.193Z,10.82
2019-02-07T16:07:29.385Z,10.83
2019-02-07T16:09:57.578Z,10.82
2019-02-07T16:12:27.499Z,10.82
2019-02-07T16:14:55.710Z,10.79
2019-02-07T16:17:23.909Z,10.70
2019-02-07T16:19:52.119Z,10.62
2019-02-07T16:22:20.318Z,10.58
2019-02-07T16:24:48.528Z,10.55
2019-02-07T16:27:18.451Z,10.49
2019-02-07T16:29:46.633Z,10.45
2019-02-07T16:32:14.831Z,10.41
2019-02-07T16:34:43.015Z,10.35
2019-02-07T16:37:11.287Z,10.32
2019-02-07T16:39:39.470Z,10.27
2019-02-07T16:42:07.676Z,10.21
2019-02-07T16:44:37.582Z,10.17
2019-02-07T16:47:05.805Z,10.13
2019-02-07T16:49:34.012Z,10.10
2019-02-07T16:52:02.248Z,10.07
2019-02-07T16:54:30.461Z,10.01
2019-02-07T16:56:58.655Z,9.96
2019-02-07T16:59:28.574Z,9.94
2019-02-07T17:01:56.777Z,9.92
2019-02-07T17:04:24.962Z,9.88
2019-02-07T17:06:53.174Z,9.84
2019-02-07T17:12:10.260Z,9.85
2019-02-07T17:14:38.439Z,9.81
2019-02-07T17:17:06.640Z,9.76
2019-02-07T17:19:34.819Z,9.75
2019-02-07T17:22:03.022Z,9.73
2019-02-07T17:24:31.194Z,9.70
2019-02-07T17:26:59.388Z,9.66
2019-02-07T17:29:27.577Z,9.65
2019-02-07T17:31:55.769Z,9.64
2019-02-07T17:34:23.948Z,9.61
2019-02-07T17:36:52.164Z,9.58
2019-02-07T17:39:20.355Z,9.57
2019-02-07T17:41:48.548Z,9.55
2019-02-07T17:44:18.486Z,9.53
2019-02-07T17:46:46.671Z,9.50
2019-02-07T17:49:14.873Z,9.48
2019-02-07T17:51:43.081Z,9.46
2019-02-07T17:54:18.670Z,9.43
2019-02-07T17:56:41.160Z,9.40
2019-02-07T17:59:09.375Z,9.41
2019-02-07T18:01:39.286Z,9.41
2019-02-07T18:04:07.482Z,9.42
2019-02-07T18:06:35.668Z,9.44
2019-02-07T18:09:43.970Z,9.44
2019-02-07T18:12:12.183Z,9.45
2019-02-07T18:14:40.362Z,9.45
2019-02-07T18:17:08.544Z,9.43
2019-02-07T18:19:36.733Z,9.42
2019-02-07T18:22:04.918Z,9.42
2019-02-07T18:24:33.140Z,9.43
2019-02-07T18:27:01.338Z,9.42
2019-02-07T18:29:29.533Z,9.43
2019-02-07T18:31:57.716Z,9.42
2019-02-07T18:34:26.026Z,9.42
2019-02-07T18:36:54.211Z,9.41
2019-02-07T18:39:22.430Z,9.41
2019-02-07T18:41:52.340Z,9.39
2019-02-07T18:44:20.532Z,9.40
2019-02-07T18:46:48.727Z,9.41
2019-02-07T18:49:16.947Z,9.41
2019-02-07T18:51:46.013Z,9.42
2019-02-07T18:54:15.095Z,9.39
2019-02-07T18:56:43.296Z,9.30
2019-02-07T18:59:13.209Z,9.23
2019-02-07T19:01:41.389Z,9.15
2019-02-07T19:04:09.583Z,9.11
2019-02-07T19:06:57.193Z,9.05
2019-02-07T19:09:25.385Z,9.02
2019-02-07T19:11:53.564Z,8.98
2019-02-07T19:14:21.785Z,8.96
2019-02-07T19:16:49.970Z,8.96
2019-02-07T19:19:18.167Z,8.97
2019-02-07T19:21:56.514Z,8.98
2019-02-07T19:24:16.259Z,9.01
2019-02-07T19:26:44.445Z,9.04
2019-02-07T19:29:12.691Z,9.04
2019-02-07T19:32:00.387Z,9.03
2019-02-07T19:34:28.583Z,9.06
2019-02-07T19:36:56.761Z,9.08
2019-02-07T19:39:24.999Z,9.09
2019-02-07T19:41:53.181Z,9.11
2019-02-07T19:44:21.390Z,9.12
2019-02-07T19:46:49.609Z,9.13
2019-02-07T19:49:17.779Z,9.15
2019-02-07T19:51:45.974Z,9.16
2019-02-07T19:54:14.161Z,9.16
2019-02-07T19:56:44.094Z,9.19
2019-02-07T19:59:12.273Z,9.19
2019-02-07T20:01:40.473Z,9.17
2019-02-07T20:04:08.670Z,9.18
2019-02-07T20:06:36.886Z,9.19
2019-02-07T20:12:18.581Z,9.19
2019-02-07T20:14:46.828Z,9.23
2019-02-07T20:17:15.043Z,9.22
2019-02-07T20:19:43.220Z,9.17
2019-02-07T20:22:20.319Z,9.17
2019-02-07T20:24:46.045Z,9.19
2019-02-07T20:27:12.965Z,9.18
2019-02-07T20:29:41.148Z,9.17
2019-02-07T20:32:09.350Z,9.14
2019-02-07T20:34:37.535Z,9.11
2019-02-07T20:37:05.732Z,9.10
2019-02-07T20:39:35.662Z,9.08
2019-02-07T20:42:03.883Z,9.08
2019-02-07T20:44:32.080Z,9.08
2019-02-07T20:47:00.267Z,9.06
2019-02-07T20:49:28.436Z,9.01
2019-02-07T20:51:56.629Z,8.96
2019-02-07T20:54:24.809Z,8.95
2019-02-07T20:56:54.750Z,8.95
2019-02-07T20:59:22.933Z,8.93
2019-02-07T21:02:31.243Z,8.91
2019-02-07T21:05:01.143Z,8.94
2019-02-07T21:07:29.357Z,8.88
2019-02-07T21:09:57.543Z,8.82
2019-02-07T21:12:25.738Z,8.76
2019-02-07T21:14:53.940Z,8.72
2019-02-07T21:17:22.142Z,8.67
2019-02-07T21:19:50.320Z,8.62
2019-02-07T21:22:20.232Z,8.60
2019-02-07T21:24:48.412Z,8.58
2019-02-07T21:27:16.608Z,8.59
2019-02-07T21:30:15.783Z,8.55
2019-02-07T21:32:44.355Z,8.54
2019-02-07T21:35:52.650Z,8.54
2019-02-07T21:38:20.841Z,8.55
2019-02-07T21:40:49.034Z,8.54
2019-02-07T21:43:17.233Z,8.51
2019-02-07T21:45:45.411Z,8.50
2019-02-07T21:48:13.616Z,8.48
2019-02-07T21:50:41.801Z,8.50
2019-02-07T21:53:10.003Z,8.49
2019-02-07T21:58:51.829Z,8.47
2019-02-07T22:01:20.014Z,8.41
2019-02-07T22:03:48.212Z,8.35
2019-02-07T22:06:18.110Z,8.30
2019-02-07T22:08:46.302Z,8.28
2019-02-07T22:11:14.480Z,8.28
2019-02-07T22:13:42.679Z,8.28
2019-02-07T22:16:10.881Z,8.29
2019-02-07T22:18:39.099Z,8.29
2019-02-07T22:21:07.279Z,8.28
2019-02-07T22:23:37.218Z,8.28
2019-02-07T22:26:05.435Z,8.28
2019-02-07T22:28:33.637Z,8.24
2019-02-07T22:31:01.817Z,8.20
2019-02-07T22:33:30.011Z,8.17
2019-02-07T22:35:58.194Z,8.18
2019-02-07T22:38:26.364Z,8.17
2019-02-07T22:40:54.586Z,8.14
2019-02-07T22:43:22.740Z,8.12
2019-02-07T22:45:50.928Z,8.11
2019-02-07T22:48:19.122Z,8.12
2019-02-07T22:50:47.322Z,8.11
2019-02-07T22:53:15.501Z,8.11
2019-02-07T22:56:03.141Z,8.11
2019-02-07T22:58:31.335Z,8.12
2019-02-07T23:01:19.292Z,8.11
2019-02-07T23:03:49.191Z,8.07
2019-02-07T23:06:17.412Z,8.04
2019-02-07T23:08:45.604Z,8.02
2019-02-07T23:11:13.829Z,8.00
2019-02-07T23:13:42.011Z,7.98
2019-02-07T23:16:10.208Z,7.95
2019-02-07T23:18:38.410Z,7.94
2019-02-07T23:21:08.346Z,7.95
2019-02-07T23:23:36.551Z,7.96
2019-02-07T23:26:04.819Z,7.95
2019-02-07T23:28:33.002Z,7.95
2019-02-07T23:31:01.201Z,7.99
2019-02-07T23:33:29.376Z,8.00
2019-02-07T23:35:57.598Z,8.02
2019-02-07T23:38:25.802Z,8.03
2019-02-07T23:40:53.982Z,8.04
2019-02-07T23:43:22.201Z,8.01
2019-02-07T23:45:50.403Z,8.01
2019-02-07T23:48:18.611Z,8.01
2019-02-07T23:50:46.779Z,8.00
2019-02-07T23:53:15.485Z,8.00
2019-02-07T23:55:44.899Z,7.99
2019-02-07T23:58:13.089Z,7.97
